createdAt,value
2023-04-05T02:35:17.480Z,99.90
2023-04-05T02:37:45.076Z,99.90
2023-04-05T02:40:15.380Z,99.90
2023-04-05T02:42:42.986Z,99.90
2023-04-05T02:45:11.395Z,99.90
2023-04-05T02:47:38.862Z,99.90
2023-04-05T02:50:07.484Z,99.90
2023-04-05T02:52:41.165Z,99.90
2023-04-05T02:55:08.593Z,99.90
2023-04-05T02:57:36.877Z,99.90
2023-04-05T03:00:15.999Z,99.90
2023-04-05T03:02:43.484Z,99.90
2023-04-05T03:05:11.169Z,99.90
2023-04-05T03:07:38.720Z,99.90
2023-04-05T03:10:10.415Z,99.90
2023-04-05T03:12:41.608Z,99.90
2023-04-05T03:15:11.535Z,99.90
2023-04-05T03:17:44.604Z,99.90
2023-04-05T03:20:14.003Z,99.90
2023-04-05T03:22:42.157Z,99.90
2023-04-05T03:25:10.615Z,99.90
2023-04-05T03:27:45.358Z,99.90
2023-04-05T03:30:16.537Z,99.90
2023-04-05T03:33:04.619Z,99.90
2023-04-05T03:35:43.321Z,99.90
2023-04-05T03:38:12.186Z,99.90
2023-04-05T03:40:47.804Z,99.90
2023-04-05T03:43:15.927Z,99.90
2023-04-05T03:45:43.454Z,99.90
2023-04-05T03:48:12.091Z,99.90
2023-04-05T03:50:39.654Z,99.90
2023-04-05T03:53:07.005Z,99.90
2023-04-05T03:55:34.789Z,99.90
2023-04-05T03:58:05.787Z,99.90
2023-04-05T04:00:36.505Z,99.90
2023-04-05T04:03:14.224Z,99.90
2023-04-05T04:05:45.942Z,99.90
2023-04-05T04:08:13.772Z,99.90
2023-04-05T04:10:41.434Z,99.90
2023-04-05T04:13:22.261Z,99.90
2023-04-05T04:16:28.937Z,99.90
2023-04-05T04:19:08.197Z,99.90
2023-04-05T04:22:02.747Z,99.90
2023-04-05T04:24:50.362Z,99.90
2023-04-05T04:27:42.380Z,99.90
2023-04-05T04:30:22.940Z,99.90
2023-04-05T04:33:17.760Z,99.90
2023-04-05T04:36:08.224Z,99.90
2023-04-05T04:39:14.043Z,99.90
2023-04-05T04:42:07.154Z,99.90
2023-04-05T04:44:49.246Z,99.90
2023-04-05T04:47:23.891Z,99.90
2023-04-05T04:50:05.106Z,99.90
2023-04-05T04:52:34.430Z,99.90
2023-04-05T04:55:02.973Z,99.90
2023-04-05T04:57:30.811Z,99.90
2023-04-05T04:59:58.535Z,99.90
2023-04-05T05:02:29.115Z,99.90
2023-04-05T05:04:58.041Z,99.90
2023-04-05T05:07:25.805Z,99.90
2023-04-05T05:09:54.361Z,99.90
2023-04-05T05:12:22.181Z,99.90
2023-04-05T05:14:49.638Z,99.90
2023-04-05T05:17:17.077Z,99.90
2023-04-05T05:19:45.524Z,99.90
2023-04-05T05:22:13.084Z,99.90
2023-04-05T05:24:40.498Z,99.90
2023-04-05T05:27:07.822Z,99.90
2023-04-05T05:29:35.177Z,99.90
2023-04-05T05:32:02.752Z,99.90
2023-04-05T05:34:30.179Z,99.90
2023-04-05T05:36:59.079Z,99.90
2023-04-05T05:39:26.362Z,99.90
2023-04-05T05:41:53.929Z,99.90
2023-04-05T05:44:21.334Z,99.90
2023-04-05T05:46:48.862Z,99.90
2023-04-05T05:49:18.316Z,99.90
2023-04-05T05:51:46.076Z,99.90
2023-04-05T05:54:13.638Z,99.90
2023-04-05T05:56:41.449Z,99.90
2023-04-05T05:59:08.950Z,99.90
2023-04-05T06:01:42.920Z,99.90
2023-04-05T06:04:13.322Z,99.90
2023-04-05T06:06:43.240Z,99.90
2023-04-05T06:09:11.309Z,99.90
2023-04-05T06:11:46.294Z,99.90
2023-04-05T06:14:21.110Z,99.90
2023-04-05T06:16:48.438Z,99.90
2023-04-05T06:19:16.012Z,99.90
2023-04-05T06:21:46.722Z,99.90
2023-04-05T06:24:14.579Z,99.90
2023-04-05T06:26:42.072Z,99.90
2023-04-05T06:29:09.725Z,99.90
2023-04-05T06:31:38.057Z,99.90
2023-04-05T06:34:05.963Z,99.90
2023-04-05T06:36:34.517Z,99.90
2023-04-05T06:39:02.365Z,99.90
2023-04-05T06:41:29.925Z,99.90
2023-04-05T06:44:01.087Z,99.90
2023-04-05T06:46:29.184Z,99.90
2023-04-05T06:48:56.666Z,99.90
2023-04-05T06:51:27.994Z,99.90
2023-04-05T06:53:56.570Z,99.90
2023-04-05T06:56:24.366Z,99.90
2023-04-05T06:58:52.100Z,99.90
2023-04-05T07:01:19.907Z,99.90
2023-04-05T07:03:47.454Z,99.90
2023-04-05T07:06:14.879Z,99.90
2023-04-05T07:08:42.399Z,99.90
2023-04-05T07:11:09.796Z,99.90
2023-04-05T07:13:37.311Z,99.90
2023-04-05T07:16:05.088Z,99.90
2023-04-05T07:18:36.878Z,99.90
2023-04-05T07:21:07.396Z,99.90
2023-04-05T07:23:35.710Z,99.90
2023-04-05T07:26:11.393Z,99.90
2023-04-05T07:28:39.517Z,99.90
2023-04-05T07:31:10.773Z,99.90
2023-04-05T07:33:42.078Z,99.90
2023-04-05T07:36:10.859Z,99.90
2023-04-05T07:38:38.678Z,99.90
2023-04-05T07:41:06.672Z,99.90
2023-04-05T07:43:34.186Z,99.90
2023-04-05T07:46:02.856Z,99.90
2023-04-05T07:48:35.529Z,99.90
2023-04-05T07:51:07.451Z,99.90
2023-04-05T07:53:35.915Z,99.90
2023-04-05T07:56:08.526Z,99.90
2023-04-05T07:58:41.009Z,99.90
2023-04-05T08:01:10.833Z,99.90
2023-04-05T08:03:40.303Z,99.90
2023-04-05T08:06:12.964Z,99.90
2023-04-05T08:08:41.568Z,99.90
2023-04-05T08:11:09.111Z,99.90
2023-04-05T08:13:38.917Z,99.90
2023-04-05T08:16:06.608Z,99.90
2023-04-05T08:18:34.220Z,99.90
2023-04-05T08:21:01.708Z,99.90
2023-04-05T08:23:29.507Z,99.90
2023-04-05T08:25:57.074Z,99.90
2023-04-05T08:28:24.946Z,99.90
2023-04-05T08:30:58.334Z,99.90
2023-04-05T08:33:28.672Z,99.90
2023-04-05T08:35:56.175Z,99.90
2023-04-05T08:38:24.133Z,99.90
2023-04-05T08:40:52.765Z,99.90
2023-04-05T08:43:40.917Z,99.90
2023-04-05T08:46:10.227Z,99.90
2023-04-05T08:48:39.357Z,99.90
2023-04-05T08:51:09.930Z,99.90
2023-04-05T08:53:38.038Z,99.90
2023-04-05T08:56:05.965Z,99.90
2023-04-05T08:58:35.732Z,99.90
2023-04-05T09:01:05.202Z,99.90
2023-04-05T09:03:40.593Z,99.90
2023-04-05T09:06:12.451Z,99.90
2023-04-05T09:08:43.245Z,99.90
2023-04-05T09:11:19.040Z,99.90
2023-04-05T09:17:08.315Z,98.80
2023-04-05T09:19:41.247Z,98.20
2023-04-05T09:22:14.212Z,97.80
2023-04-05T09:24:44.071Z,96.70
2023-04-05T09:27:15.119Z,94.50
2023-04-05T09:29:47.981Z,94.50
2023-04-05T09:32:18.407Z,95.30
2023-04-05T09:34:46.183Z,94.70
2023-04-05T09:37:23.608Z,93.50
2023-04-05T09:39:54.605Z,92.40
2023-04-05T09:42:26.100Z,92.00
2023-04-05T09:48:11.153Z,91.00
2023-04-05T09:51:15.024Z,90.60
2023-04-05T09:54:08.598Z,89.80
2023-04-05T09:56:41.032Z,88.00
2023-04-05T09:59:11.459Z,90.30
2023-04-05T10:01:55.264Z,90.20
2023-04-05T10:04:25.378Z,87.30
2023-04-05T10:06:56.150Z,84.30
2023-04-05T10:09:24.396Z,88.10
2023-04-05T10:11:52.774Z,88.30
2023-04-05T10:14:20.807Z,83.80
2023-04-05T10:16:59.707Z,82.90
2023-04-05T10:19:59.657Z,81.10
2023-04-05T10:22:39.887Z,81.00
2023-04-05T10:25:35.348Z,81.30
2023-04-05T10:28:10.125Z,81.50
2023-04-05T10:30:55.786Z,80.20
2023-04-05T10:33:34.750Z,80.90
2023-04-05T10:36:23.542Z,80.00
2023-04-05T10:39:16.198Z,81.00
2023-04-05T10:41:55.670Z,80.30
2023-04-05T10:44:47.150Z,80.10
2023-04-05T10:47:41.908Z,80.70
2023-04-05T10:50:13.700Z,78.20
2023-04-05T10:52:42.863Z,79.70
2023-04-05T10:55:11.529Z,77.60
2023-04-05T10:57:40.519Z,76.50
2023-04-05T11:00:09.348Z,77.50
2023-04-05T11:02:37.752Z,77.40
2023-04-05T11:05:37.990Z,78.20
2023-04-05T11:08:18.906Z,76.00
2023-04-05T11:11:04.749Z,78.80
2023-04-05T11:14:02.293Z,80.60
2023-04-05T11:16:54.285Z,79.40
2023-04-05T11:19:55.213Z,79.80
2023-04-05T11:22:39.845Z,78.30
2023-04-05T11:25:40.842Z,79.90
2023-04-05T11:28:57.810Z,78.30
2023-04-05T11:31:27.891Z,75.80
2023-04-05T11:33:59.940Z,72.50
2023-04-05T11:36:48.963Z,76.00
2023-04-05T11:39:22.402Z,75.30
2023-04-05T11:42:14.719Z,74.80
2023-04-05T12:28:53.900Z,74.80
2023-04-05T12:34:49.652Z,72.20
2023-04-05T12:37:17.959Z,71.90
2023-04-05T12:39:46.037Z,73.80
2023-04-05T12:42:18.318Z,74.80
2023-04-05T12:44:46.157Z,73.10
2023-04-05T12:47:16.068Z,73.20
2023-04-05T12:49:43.799Z,71.50
2023-04-05T12:52:11.946Z,73.80
2023-04-05T12:54:39.602Z,72.60
2023-04-05T12:57:09.277Z,72.10
2023-04-05T12:59:37.056Z,72.20
2023-04-05T13:02:11.617Z,71.10
2023-04-05T13:04:49.371Z,71.50
2023-04-05T13:07:16.906Z,72.30
2023-04-05T13:09:44.516Z,74.20
2023-04-05T13:12:12.725Z,73.60
2023-04-05T13:14:40.282Z,77.10
2023-04-05T13:17:07.751Z,77.20
2023-04-05T13:19:35.309Z,75.30
2023-04-05T13:22:02.974Z,74.00
2023-04-05T13:24:37.440Z,73.80
2023-04-05T13:27:10.841Z,74.20
2023-04-05T13:29:38.518Z,74.10
2023-04-05T13:32:09.005Z,72.90
2023-04-05T13:34:37.090Z,73.20
2023-04-05T13:37:04.999Z,73.50
2023-04-05T13:39:32.992Z,74.60
2023-04-05T13:42:02.899Z,75.20
2023-04-05T13:44:30.633Z,76.20
2023-04-05T13:46:59.840Z,76.00
2023-04-05T13:49:27.312Z,75.40
2023-04-05T13:51:55.155Z,75.80
2023-04-05T13:54:22.641Z,74.30
2023-04-05T13:56:50.136Z,74.70
2023-04-05T13:59:19.793Z,74.90
2023-04-05T14:01:47.937Z,75.00
2023-04-05T14:04:16.718Z,75.60
2023-04-05T14:06:44.748Z,76.40
2023-04-05T14:09:12.372Z,76.70
2023-04-05T14:11:40.076Z,77.10
2023-04-05T14:14:07.642Z,76.70
2023-04-05T14:16:35.759Z,77.30
2023-04-05T14:19:03.410Z,77.20
2023-04-05T14:21:31.528Z,77.10
2023-04-05T14:23:59.792Z,77.20
2023-04-05T14:26:28.715Z,76.80
2023-04-05T14:28:56.466Z,76.60
2023-04-05T14:31:25.769Z,77.30
2023-04-05T14:33:53.443Z,77.00
2023-04-05T14:36:21.252Z,77.30
2023-04-05T14:38:48.813Z,77.30
2023-04-05T14:41:16.733Z,77.70
2023-04-05T14:43:44.523Z,77.30
2023-04-05T14:46:12.054Z,78.70
2023-04-05T14:48:39.636Z,79.40
2023-04-05T14:51:07.387Z,78.50
2023-04-05T14:53:34.930Z,78.40
2023-04-05T14:56:02.586Z,78.20
2023-04-05T14:58:30.150Z,79.10
2023-04-05T15:00:58.129Z,79.30
2023-04-05T15:03:26.178Z,79.00
2023-04-05T15:05:54.284Z,78.90
2023-04-05T15:08:22.156Z,78.70
2023-04-05T15:10:50.193Z,79.50
2023-04-05T15:13:20.037Z,80.70
2023-04-05T15:15:47.727Z,80.90
2023-04-05T15:18:15.313Z,80.30
2023-04-05T15:20:42.833Z,79.80
2023-04-05T15:23:10.556Z,79.50
2023-04-05T15:25:38.126Z,79.90
2023-04-05T15:28:07.040Z,80.60
2023-04-05T15:30:35.952Z,80.40
2023-04-05T15:33:03.775Z,81.70
2023-04-05T15:35:32.187Z,81.30
2023-04-05T15:38:00.767Z,81.10
2023-04-05T15:40:29.556Z,81.30
2023-04-05T15:42:57.127Z,81.00
2023-04-05T15:45:24.728Z,80.90
2023-04-05T15:47:52.380Z,81.10
2023-04-05T15:50:20.709Z,81.20
2023-04-05T15:52:48.669Z,81.20
2023-04-05T15:55:16.256Z,81.70
2023-04-05T15:57:43.874Z,81.90
2023-04-05T16:00:12.165Z,81.80
2023-04-05T16:02:40.005Z,81.90
2023-04-05T16:05:07.722Z,82.60
2023-04-05T16:07:35.276Z,82.00
2023-04-05T16:10:04.525Z,82.20
2023-04-05T16:12:32.238Z,78.90
2023-04-05T16:14:59.728Z,77.50
2023-04-05T16:17:28.348Z,78.70
2023-04-05T16:19:57.530Z,78.60
2023-04-05T16:22:26.108Z,78.80
2023-04-05T16:24:53.668Z,79.10
2023-04-05T16:27:21.241Z,79.50
2023-04-05T16:29:49.521Z,79.50
2023-04-05T16:32:18.065Z,79.50
2023-04-05T16:34:46.011Z,79.00
2023-04-05T16:37:14.242Z,80.70
2023-04-05T16:39:42.294Z,82.60
2023-04-05T16:42:09.955Z,83.10
2023-04-05T16:44:37.616Z,82.80
2023-04-05T16:47:05.319Z,82.50
2023-04-05T16:49:32.887Z,84.00
2023-04-05T16:52:00.564Z,85.10
2023-04-05T16:54:28.196Z,85.70
2023-04-05T16:56:56.728Z,84.90
2023-04-05T16:59:24.405Z,87.90
2023-04-05T17:01:52.009Z,89.50
2023-04-05T17:04:19.602Z,88.80
2023-04-05T17:06:46.990Z,87.60
2023-04-05T17:09:16.337Z,87.00
2023-04-05T17:11:46.757Z,87.00
2023-04-05T17:14:16.916Z,90.40
2023-04-05T17:16:47.432Z,90.30
2023-04-05T17:19:18.678Z,89.70
2023-04-05T17:21:49.081Z,88.70
2023-04-05T17:24:17.920Z,90.30
2023-04-05T17:26:47.637Z,90.00
2023-04-05T17:29:17.789Z,89.50
2023-04-05T17:31:45.415Z,89.10
2023-04-05T17:34:15.210Z,88.60
2023-04-05T17:36:43.787Z,89.00
2023-04-05T17:39:11.393Z,90.20
2023-04-05T17:41:39.006Z,90.40
2023-04-05T17:44:06.726Z,90.30
2023-04-05T17:46:41.663Z,90.00
2023-04-05T17:49:14.205Z,90.40
2023-04-05T17:51:41.894Z,91.30
2023-04-05T17:54:09.393Z,90.70
2023-04-05T17:56:38.928Z,90.80
2023-04-05T17:59:08.049Z,91.20
2023-04-05T18:01:36.438Z,91.80
2023-04-05T18:04:06.275Z,91.80
2023-04-05T18:06:34.367Z,92.00
2023-04-05T18:09:03.047Z,91.80
2023-04-05T18:11:31.109Z,93.00
2023-04-05T18:14:01.800Z,92.80
2023-04-05T18:16:30.152Z,92.40
2023-04-05T18:18:57.789Z,92.60
2023-04-05T18:21:25.270Z,92.80
2023-04-05T18:23:53.156Z,92.80
2023-04-05T18:26:20.990Z,92.80
2023-04-05T18:28:49.437Z,93.00
2023-04-05T18:31:17.197Z,93.90
2023-04-05T18:33:45.032Z,93.50
2023-04-05T18:36:13.281Z,93.40
2023-04-05T18:38:41.112Z,93.60
2023-04-05T18:41:10.056Z,93.50
2023-04-05T18:43:37.727Z,93.50
2023-04-05T18:46:07.028Z,93.90
2023-04-05T18:48:44.033Z,93.70
2023-04-05T18:51:17.632Z,93.80
2023-04-05T18:53:48.640Z,93.90
2023-04-05T18:56:20.564Z,93.90
2023-04-05T18:58:59.397Z,93.90
2023-04-05T19:01:29.168Z,94.00
2023-04-05T19:03:57.624Z,94.40
2023-04-05T19:06:25.357Z,94.40
2023-04-05T19:08:52.999Z,94.20
2023-04-05T19:11:22.404Z,94.30
2023-04-05T19:13:50.965Z,94.70
2023-04-05T19:16:19.216Z,94.60
2023-04-05T19:18:46.788Z,95.20
2023-04-05T19:21:14.306Z,95.00
2023-04-05T19:23:42.294Z,95.00
2023-04-05T19:26:09.957Z,95.20
2023-04-05T19:28:37.641Z,95.00
2023-04-05T19:31:05.302Z,95.00
2023-04-05T19:33:33.228Z,95.00
2023-04-05T19:36:02.486Z,95.30
2023-04-05T19:38:32.797Z,95.30
2023-04-05T19:41:00.818Z,95.40
2023-04-05T19:43:31.913Z,95.50
2023-04-05T19:46:01.079Z,95.40
2023-04-05T19:48:40.319Z,95.60
2023-04-05T19:51:14.461Z,95.60
2023-04-05T19:53:49.450Z,95.50
2023-04-05T19:56:26.716Z,95.80
2023-04-05T19:59:01.183Z,95.70
2023-04-05T20:01:33.566Z,95.50
2023-04-05T20:04:08.883Z,95.50
2023-04-05T20:06:36.631Z,95.40
2023-04-05T20:09:06.707Z,95.40
2023-04-05T20:11:35.418Z,95.50
2023-04-05T20:14:04.345Z,95.60
2023-04-05T20:16:49.837Z,96.10
2023-04-05T20:19:31.415Z,95.80
2023-04-05T20:22:01.719Z,96.00
2023-04-05T20:24:32.451Z,96.30
2023-04-05T20:27:00.220Z,96.30
2023-04-05T20:29:32.608Z,96.60
2023-04-05T20:32:02.491Z,96.60
2023-04-05T20:34:34.959Z,96.60
2023-04-05T20:37:07.447Z,96.70
2023-04-05T20:39:35.461Z,96.70
2023-04-05T20:42:04.213Z,96.80
2023-04-05T20:44:32.002Z,96.80
2023-04-05T20:47:00.859Z,96.90
2023-04-05T20:49:28.629Z,97.20
2023-04-05T20:51:57.699Z,97.40
2023-04-05T20:54:25.839Z,97.40
2023-04-05T20:56:53.658Z,97.40
2023-04-05T20:59:22.136Z,98.40
2023-04-05T21:01:49.914Z,98.60
2023-04-05T21:04:17.565Z,98.40
2023-04-05T21:06:45.253Z,98.60
2023-04-05T21:09:14.211Z,98.60
2023-04-05T21:11:42.757Z,98.90
2023-04-05T21:14:10.328Z,98.80
2023-04-05T21:16:37.985Z,98.80
2023-04-05T21:19:06.057Z,99.60
2023-04-05T21:21:34.014Z,99.40
2023-04-05T21:24:01.879Z,99.50
2023-04-05T21:26:29.683Z,99.70
2023-04-05T21:28:57.413Z,99.90
2023-04-05T21:31:25.308Z,99.90
2023-04-05T21:33:52.971Z,99.90
2023-04-05T21:36:20.557Z,99.90
2023-04-05T21:38:48.450Z,99.90
2023-04-05T21:41:16.639Z,99.90
2023-04-05T21:43:44.312Z,99.90
2023-04-05T21:46:12.262Z,99.90
2023-04-05T21:48:39.950Z,99.90
2023-04-05T21:51:07.644Z,99.90
2023-04-05T21:53:36.045Z,99.90
2023-04-05T21:56:04.627Z,99.90
2023-04-05T21:58:32.151Z,99.90
2023-04-05T22:01:00.254Z,99.90
2023-04-05T22:03:27.863Z,99.90
2023-04-05T22:05:55.750Z,99.90
2023-04-05T22:08:23.322Z,99.90
2023-04-05T22:10:51.058Z,99.90
2023-04-05T22:13:18.593Z,99.90
2023-04-05T22:15:46.631Z,99.90
2023-04-05T22:18:14.417Z,99.90
2023-04-05T22:20:42.000Z,99.90
2023-04-05T22:23:09.554Z,99.90
2023-04-05T22:25:36.998Z,99.90
2023-04-05T22:28:04.634Z,99.90
2023-04-05T22:30:42.860Z,99.90
2023-04-05T22:33:15.306Z,99.90
2023-04-05T22:35:42.949Z,99.90
2023-04-05T22:38:10.608Z,99.90
2023-04-05T22:40:38.370Z,99.90
2023-04-05T22:43:06.662Z,99.90
2023-04-05T22:45:34.169Z,99.90
2023-04-05T22:48:02.078Z,99.90
2023-04-05T22:50:29.834Z,99.90
2023-04-05T22:52:57.374Z,99.90
2023-04-05T22:55:25.042Z,99.90
2023-04-05T22:57:52.668Z,99.90
2023-04-05T23:00:20.434Z,99.90
2023-04-05T23:02:48.126Z,99.90
2023-04-05T23:05:15.871Z,99.90
2023-04-05T23:07:44.032Z,99.90
2023-04-05T23:10:11.836Z,99.90
2023-04-05T23:12:39.466Z,99.90
2023-04-05T23:15:07.306Z,99.90
2023-04-05T23:17:34.999Z,99.90
2023-04-05T23:20:02.863Z,99.90
2023-04-05T23:22:30.693Z,99.90
2023-04-05T23:25:02.604Z,99.90
2023-04-05T23:27:30.553Z,99.90
2023-04-05T23:29:58.318Z,99.90
2023-04-05T23:32:26.258Z,99.90
2023-04-05T23:34:53.878Z,99.90
2023-04-05T23:37:21.504Z,99.90
2023-04-05T23:39:49.208Z,99.90
2023-04-05T23:42:16.755Z,99.90
2023-04-05T23:44:44.305Z,99.90
2023-04-05T23:47:11.712Z,99.90
2023-04-05T23:49:39.264Z,99.90
2023-04-05T23:52:06.967Z,99.90
2023-04-05T23:54:34.429Z,99.90
2023-04-05T23:57:02.291Z,99.90
2023-04-05T23:59:29.846Z,99.90
